createdAt,value
2023-01-20T00:00:08.086Z,49.14
2023-01-20T00:01:32.399Z,49.17
2023-01-20T00:02:49.722Z,49.21
2023-01-20T00:04:06.137Z,49.26
2023-01-20T00:05:21.790Z,49.29
2023-01-20T00:06:36.138Z,49.34
2023-01-20T00:07:45.956Z,49.67
2023-01-20T00:09:03.026Z,49.93
2023-01-20T00:11:30.861Z,49.94
2023-01-20T00:12:33.532Z,49.99
2023-01-20T00:13:36.219Z,49.98
2023-01-20T00:14:38.872Z,50.02
2023-01-20T00:15:41.976Z,50.02
2023-01-20T00:16:44.574Z,50.07
2023-01-20T00:17:47.940Z,50.07
2023-01-20T00:18:51.539Z,50.12
2023-01-20T00:19:55.184Z,50.16
2023-01-20T00:21:03.460Z,50.18
2023-01-20T00:22:05.848Z,50.17
2023-01-20T00:23:08.822Z,50.21
2023-01-20T00:24:11.174Z,50.22
2023-01-20T00:25:13.836Z,50.20
2023-01-20T00:26:20.606Z,50.16
2023-01-20T00:27:24.045Z,50.15
2023-01-20T00:28:27.704Z,50.13
2023-01-20T00:29:31.712Z,50.14
2023-01-20T00:30:35.173Z,50.24
2023-01-20T00:31:37.873Z,50.27
2023-01-20T00:32:43.612Z,50.25
2023-01-20T00:33:46.868Z,50.25
2023-01-20T00:34:49.536Z,50.23
2023-01-20T00:35:52.575Z,50.21
2023-01-20T00:36:55.898Z,50.23
2023-01-20T00:37:58.434Z,50.51
2023-01-20T00:39:02.180Z,50.68
2023-01-20T00:40:07.181Z,50.62
2023-01-20T00:41:09.855Z,50.52
2023-01-20T00:42:12.918Z,50.43
2023-01-20T00:43:15.288Z,50.38
2023-01-20T00:44:18.950Z,50.33
2023-01-20T00:45:21.480Z,50.31
2023-01-20T00:46:24.917Z,50.31
2023-01-20T00:47:27.950Z,50.31
2023-01-20T00:48:31.332Z,50.30
2023-01-20T00:49:33.832Z,50.30
2023-01-20T00:50:38.533Z,50.26
2023-01-20T00:51:41.044Z,50.24
2023-01-20T00:52:43.337Z,50.24
2023-01-20T00:53:46.530Z,50.24
2023-01-20T00:54:49.939Z,50.25
2023-01-20T00:55:52.317Z,50.24
2023-01-20T00:56:55.756Z,50.25
2023-01-20T00:57:58.363Z,50.26
2023-01-20T00:59:00.692Z,50.27
2023-01-20T01:00:05.351Z,50.25
2023-01-20T01:01:07.810Z,50.26
2023-01-20T01:02:10.366Z,50.28
2023-01-20T01:03:12.901Z,50.29
2023-01-20T01:04:16.027Z,50.37
2023-01-20T01:05:18.826Z,50.37
2023-01-20T01:06:23.255Z,50.29
2023-01-20T01:07:25.613Z,50.28
2023-01-20T01:08:28.036Z,50.28
2023-01-20T01:09:31.925Z,50.30
2023-01-20T01:10:34.497Z,50.28
2023-01-20T01:11:36.931Z,50.28
2023-01-20T01:12:39.266Z,50.27
2023-01-20T01:13:41.597Z,50.31
2023-01-20T01:14:44.146Z,50.34
2023-01-20T01:15:50.093Z,50.36
2023-01-20T01:16:52.803Z,50.37
2023-01-20T01:17:55.820Z,50.36
2023-01-20T01:18:59.186Z,50.37
2023-01-20T01:20:03.628Z,50.39
2023-01-20T01:21:09.958Z,50.43
2023-01-20T01:22:13.369Z,50.50
2023-01-20T01:23:15.840Z,50.71
2023-01-20T01:24:20.316Z,50.69
2023-01-20T01:25:23.083Z,50.85
2023-01-20T01:26:25.504Z,50.94
2023-01-20T01:27:28.526Z,50.99
2023-01-20T01:28:31.787Z,50.93
2023-01-20T01:29:34.567Z,50.84
2023-01-20T01:30:39.719Z,50.76
2023-01-20T01:31:42.396Z,50.76
2023-01-20T01:32:45.859Z,50.70
2023-01-20T01:33:49.149Z,50.66
2023-01-20T01:34:51.827Z,50.68
2023-01-20T01:37:08.541Z,50.65
2023-01-20T01:38:10.723Z,50.64
2023-01-20T01:39:13.649Z,50.65
2023-01-20T01:40:17.937Z,50.64
2023-01-20T01:41:20.313Z,50.63
2023-01-20T01:42:25.140Z,50.63
2023-01-20T01:43:29.482Z,50.62
2023-01-20T01:44:31.753Z,50.59
2023-01-20T01:45:35.788Z,50.57
2023-01-20T01:46:39.088Z,50.57
2023-01-20T01:47:48.342Z,50.56
2023-01-20T01:48:51.109Z,50.56
2023-01-20T01:49:53.415Z,50.55
2023-01-20T01:52:20.842Z,50.52
2023-01-20T01:53:25.099Z,50.47
2023-01-20T02:36:13.514Z,57.37
2023-01-20T02:38:47.386Z,57.68
2023-01-20T02:41:33.092Z,57.57
2023-01-20T02:42:45.640Z,57.47
2023-01-20T02:43:54.905Z,57.23
2023-01-20T02:45:21.803Z,57.03
2023-01-20T02:46:27.087Z,56.78
2023-01-20T02:47:51.608Z,56.48
2023-01-20T02:48:55.621Z,56.22
2023-01-20T02:50:23.032Z,55.94
2023-01-20T02:51:31.176Z,55.71
2023-01-20T02:53:55.690Z,55.31
2023-01-20T02:54:59.725Z,55.14
2023-01-20T02:56:02.317Z,54.98
2023-01-20T02:57:06.639Z,54.85
2023-01-20T02:58:25.434Z,54.69
2023-01-20T02:59:30.473Z,54.48
2023-01-20T03:00:37.017Z,54.27
2023-01-20T03:01:42.927Z,54.09
2023-01-20T03:02:45.411Z,53.95
2023-01-20T03:03:48.948Z,53.84
2023-01-20T03:04:54.598Z,53.71
2023-01-20T03:05:58.520Z,53.61
2023-01-20T03:07:02.605Z,53.43
2023-01-20T03:08:06.592Z,53.31
2023-01-20T03:09:10.744Z,53.26
2023-01-20T03:10:15.222Z,53.15
2023-01-20T03:11:18.174Z,53.01
2023-01-20T03:12:35.790Z,52.93
2023-01-20T03:13:59.318Z,52.81
2023-01-20T03:15:01.569Z,52.70
2023-01-20T03:16:11.892Z,52.54
2023-01-20T03:17:15.608Z,52.52
2023-01-20T03:18:18.195Z,52.45
2023-01-20T03:19:21.341Z,52.38
2023-01-20T03:20:23.863Z,52.26
2023-01-20T03:21:26.343Z,52.21
2023-01-20T03:22:30.373Z,52.11
2023-01-20T03:23:35.677Z,52.00
2023-01-20T03:24:38.241Z,51.95
2023-01-20T03:25:41.296Z,51.86
2023-01-20T03:26:44.283Z,51.83
2023-01-20T03:27:46.944Z,51.80
2023-01-20T03:28:49.655Z,51.77
2023-01-20T03:29:52.066Z,51.72
2023-01-20T03:30:55.331Z,51.72
2023-01-20T03:32:01.833Z,51.65
2023-01-20T03:33:04.412Z,51.66
2023-01-20T03:34:12.132Z,51.61
2023-01-20T03:35:15.745Z,51.58
2023-01-20T03:36:18.809Z,51.54
2023-01-20T03:37:21.787Z,51.52
2023-01-20T03:38:25.323Z,51.46
2023-01-20T03:39:27.612Z,51.46
2023-01-20T03:40:32.680Z,51.37
2023-01-20T03:41:54.230Z,51.37
2023-01-20T03:44:50.525Z,51.31
2023-01-20T03:47:19.431Z,51.23
2023-01-20T03:48:37.986Z,51.22
2023-01-20T03:50:07.930Z,51.23
2023-01-20T03:52:46.589Z,51.40
2023-01-20T03:53:44.020Z,51.46
2023-01-20T03:54:56.275Z,51.58
2023-01-20T03:57:19.471Z,51.67
2023-01-20T03:58:34.777Z,51.75
2023-01-20T03:59:38.642Z,51.81
2023-01-20T04:00:43.441Z,51.84
2023-01-20T04:01:46.332Z,51.86
2023-01-20T04:02:49.495Z,51.85
2023-01-20T04:03:52.647Z,51.89
2023-01-20T04:04:55.492Z,51.93
2023-01-20T04:05:58.130Z,51.96
2023-01-20T04:07:00.912Z,51.95
2023-01-20T04:08:04.915Z,51.96
2023-01-20T04:09:08.868Z,51.94
2023-01-20T04:10:13.247Z,51.98
2023-01-20T04:11:16.764Z,51.93
2023-01-20T04:12:20.332Z,51.92
2023-01-20T04:13:22.971Z,51.93
2023-01-20T04:14:25.166Z,51.94
2023-01-20T04:15:30.326Z,51.91
2023-01-20T04:16:33.328Z,51.91
2023-01-20T04:17:35.681Z,51.90
2023-01-20T04:18:40.560Z,51.91
2023-01-20T04:19:42.933Z,51.89
2023-01-20T04:20:48.594Z,51.89
2023-01-20T04:23:25.320Z,51.87
2023-01-20T04:24:53.795Z,51.89
2023-01-20T04:25:56.157Z,51.86
2023-01-20T04:27:00.568Z,51.82
2023-01-20T04:28:04.385Z,51.82
2023-01-20T04:29:12.814Z,51.81
2023-01-20T04:30:14.347Z,51.84
2023-01-20T04:31:29.700Z,51.90
2023-01-20T04:32:21.954Z,51.91
2023-01-20T04:33:24.426Z,51.94
2023-01-20T04:34:27.076Z,51.97
2023-01-20T04:35:29.508Z,51.98
2023-01-20T04:36:31.972Z,52.02
2023-01-20T04:37:35.805Z,52.07
2023-01-20T04:38:38.533Z,52.11
2023-01-20T04:39:41.101Z,52.14
2023-01-20T04:40:43.801Z,52.18
2023-01-20T04:41:47.219Z,52.18
2023-01-20T04:42:50.861Z,52.19
2023-01-20T04:43:53.329Z,52.30
2023-01-20T04:44:56.052Z,52.35
2023-01-20T04:45:59.126Z,52.36
2023-01-20T04:47:02.464Z,52.38
2023-01-20T04:48:06.900Z,52.41
2023-01-20T04:49:10.498Z,52.35
2023-01-20T04:50:14.821Z,52.31
2023-01-20T04:51:17.371Z,52.31
2023-01-20T04:52:19.858Z,52.28
2023-01-20T04:53:22.267Z,52.34
2023-01-20T04:54:25.146Z,52.36
2023-01-20T04:55:27.514Z,52.31
2023-01-20T04:56:29.947Z,52.30
2023-01-20T04:57:32.956Z,52.28
2023-01-20T04:58:38.445Z,52.27
2023-01-20T04:59:41.689Z,52.21
2023-01-20T05:00:45.040Z,52.17
2023-01-20T05:01:47.458Z,52.23
2023-01-20T05:02:49.808Z,52.18
2023-01-20T05:03:53.423Z,52.21
2023-01-20T05:04:57.114Z,52.13
2023-01-20T05:05:59.421Z,52.20
2023-01-20T05:07:02.452Z,52.18
2023-01-20T05:08:05.586Z,52.15
2023-01-20T05:09:10.982Z,52.09
2023-01-20T05:10:16.097Z,52.05
2023-01-20T05:11:19.017Z,51.98
2023-01-20T05:12:21.567Z,51.94
2023-01-20T05:13:24.113Z,51.90
2023-01-20T05:14:27.528Z,51.88
2023-01-20T05:15:30.728Z,51.88
2023-01-20T05:16:34.380Z,51.85
2023-01-20T05:17:36.902Z,51.87
2023-01-20T05:18:39.326Z,51.83
2023-01-20T05:19:43.052Z,51.80
2023-01-20T05:20:48.698Z,51.81
2023-01-20T05:21:51.208Z,51.79
2023-01-20T05:22:54.225Z,51.77
2023-01-20T05:23:56.700Z,51.77
2023-01-20T05:25:00.221Z,51.73
2023-01-20T05:26:02.816Z,51.78
2023-01-20T05:27:05.203Z,51.82
2023-01-20T05:28:07.666Z,51.77
2023-01-20T05:29:10.096Z,51.71
2023-01-20T05:30:13.986Z,51.68
2023-01-20T05:31:18.020Z,51.65
2023-01-20T05:32:20.570Z,51.62
2023-01-20T05:33:23.456Z,51.58
2023-01-20T05:34:25.923Z,51.55
2023-01-20T05:35:28.898Z,51.55
2023-01-20T05:36:33.318Z,51.56
2023-01-20T05:37:36.779Z,51.56
2023-01-20T05:38:39.370Z,51.26
2023-01-20T05:39:41.840Z,51.26
2023-01-20T05:40:44.243Z,51.34
2023-01-20T05:41:46.912Z,51.29
2023-01-20T05:42:49.563Z,51.26
2023-01-20T05:43:55.355Z,51.20
2023-01-20T05:44:58.472Z,51.17
2023-01-20T05:46:00.981Z,51.13
2023-01-20T05:47:03.279Z,51.11
2023-01-20T05:48:06.167Z,51.13
2023-01-20T05:49:11.362Z,51.09
2023-01-20T05:50:14.475Z,51.08
2023-01-20T05:51:18.124Z,51.01
2023-01-20T05:52:21.132Z,51.03
2023-01-20T05:53:25.955Z,51.03
2023-01-20T05:54:28.869Z,51.06
2023-01-20T05:55:31.635Z,51.10
2023-01-20T05:56:34.919Z,51.15
2023-01-20T05:57:37.570Z,51.21
2023-01-20T05:58:40.299Z,51.25
2023-01-20T05:59:43.083Z,51.23
2023-01-20T06:00:46.670Z,51.29
2023-01-20T06:01:49.592Z,51.44
2023-01-20T06:02:53.187Z,51.44
2023-01-20T06:03:56.899Z,51.37
2023-01-20T06:06:32.460Z,51.46
2023-01-20T06:07:36.426Z,51.47
2023-01-20T06:08:38.888Z,51.56
2023-01-20T06:09:42.441Z,51.52
2023-01-20T06:10:44.906Z,51.56
2023-01-20T06:11:48.203Z,51.67
2023-01-20T06:12:52.616Z,51.71
2023-01-20T06:13:57.284Z,51.66
2023-01-20T06:15:01.698Z,51.74
2023-01-20T06:16:07.348Z,51.81
2023-01-20T06:17:10.525Z,51.79
2023-01-20T06:18:13.545Z,51.82
2023-01-20T06:19:16.423Z,51.79
2023-01-20T06:20:18.914Z,51.76
2023-01-20T06:21:22.238Z,51.78
2023-01-20T06:22:25.494Z,51.89
2023-01-20T06:23:28.576Z,51.97
2023-01-20T06:24:31.114Z,51.93
2023-01-20T06:25:33.408Z,51.83
2023-01-20T06:26:36.069Z,51.83
2023-01-20T06:27:38.362Z,51.83
2023-01-20T06:28:42.008Z,51.83
2023-01-20T06:29:45.600Z,51.77
2023-01-20T06:30:48.173Z,51.73
2023-01-20T06:31:51.654Z,51.66
2023-01-20T06:32:54.481Z,51.74
2023-01-20T06:33:57.502Z,51.58
2023-01-20T06:34:59.881Z,51.51
2023-01-20T06:36:03.303Z,51.44
2023-01-20T06:37:06.670Z,51.41
2023-01-20T06:38:10.435Z,51.42
2023-01-20T06:39:14.071Z,51.42
2023-01-20T06:40:17.544Z,51.36
2023-01-20T06:41:20.819Z,51.35
2023-01-20T06:42:23.976Z,51.30
2023-01-20T06:43:31.143Z,51.26
2023-01-20T06:44:33.852Z,51.20
2023-01-20T06:45:37.941Z,51.17
2023-01-20T06:46:41.040Z,51.20
2023-01-20T06:47:43.555Z,51.23
2023-01-20T06:48:45.873Z,51.24
2023-01-20T06:49:48.736Z,51.20
2023-01-20T06:50:51.235Z,51.19
2023-01-20T06:51:54.298Z,51.15
2023-01-20T06:52:57.684Z,51.14
2023-01-20T06:54:00.156Z,51.04
2023-01-20T06:55:02.831Z,51.00
2023-01-20T06:56:06.378Z,50.98
2023-01-20T06:57:08.717Z,50.98
2023-01-20T06:58:11.150Z,50.92
2023-01-20T06:59:14.409Z,50.88
2023-01-20T07:00:17.952Z,50.89
2023-01-20T07:01:25.920Z,50.96
2023-01-20T07:02:29.562Z,50.92
2023-01-20T07:03:32.848Z,50.87
2023-01-20T07:04:37.005Z,50.89
2023-01-20T07:05:39.648Z,50.81
2023-01-20T07:06:42.435Z,50.79
2023-01-20T07:07:46.728Z,50.73
2023-01-20T07:08:49.246Z,50.68
2023-01-20T07:09:54.263Z,50.68
2023-01-20T07:10:56.777Z,50.72
2023-01-20T07:11:59.192Z,50.69
2023-01-20T07:13:02.713Z,50.66
2023-01-20T07:14:06.490Z,50.60
2023-01-20T07:15:11.749Z,50.58
2023-01-20T07:16:15.889Z,50.55
2023-01-20T07:17:19.357Z,50.45
2023-01-20T07:18:21.851Z,50.42
2023-01-20T07:19:24.303Z,50.38
2023-01-20T07:20:27.775Z,50.33
2023-01-20T07:21:30.830Z,50.28
2023-01-20T07:22:33.838Z,50.28
2023-01-20T07:23:36.447Z,50.20
2023-01-20T07:24:38.872Z,50.15
2023-01-20T07:25:41.311Z,50.10
2023-01-20T07:26:43.718Z,50.05
2023-01-20T07:27:46.642Z,50.07
2023-01-20T07:28:49.716Z,50.03
2023-01-20T07:29:52.771Z,49.98
2023-01-20T07:30:55.231Z,49.99
2023-01-20T07:31:57.765Z,49.96
2023-01-20T07:33:01.069Z,49.94
2023-01-20T07:34:03.485Z,49.86
2023-01-20T07:35:06.791Z,49.85
2023-01-20T07:36:09.753Z,49.84
2023-01-20T07:37:13.523Z,49.82
2023-01-20T07:38:15.938Z,49.83
2023-01-20T07:39:20.646Z,49.81
2023-01-20T07:40:23.167Z,49.81
2023-01-20T07:41:25.630Z,49.79
2023-01-20T07:42:28.920Z,49.75
2023-01-20T07:43:31.485Z,49.75
2023-01-20T07:44:34.376Z,49.73
2023-01-20T07:45:36.967Z,49.70
2023-01-20T07:46:40.408Z,49.70
2023-01-20T07:47:43.258Z,49.71
2023-01-20T07:48:46.294Z,49.66
2023-01-20T07:49:48.750Z,49.62
2023-01-20T07:51:06.011Z,49.62
2023-01-20T07:52:08.493Z,49.59
2023-01-20T07:53:12.019Z,49.52
2023-01-20T07:54:16.049Z,49.53
2023-01-20T07:55:19.048Z,49.54
2023-01-20T07:56:27.037Z,49.52
2023-01-20T07:58:45.320Z,49.82
2023-01-20T07:59:47.750Z,49.78
2023-01-20T08:00:50.556Z,49.71
2023-01-20T08:01:53.318Z,49.71
2023-01-20T08:02:55.977Z,49.75
2023-01-20T08:04:00.926Z,49.66
2023-01-20T08:05:03.882Z,49.59
2023-01-20T08:06:07.975Z,49.52
2023-01-20T08:07:11.653Z,49.45
2023-01-20T08:08:15.069Z,49.36
2023-01-20T08:09:17.648Z,49.28
2023-01-20T08:10:20.987Z,49.24
2023-01-20T08:11:23.906Z,49.17
2023-01-20T08:12:26.244Z,49.12
2023-01-20T08:13:30.436Z,49.08
2023-01-20T08:14:36.979Z,49.05
2023-01-20T08:15:39.207Z,48.99
2023-01-20T08:16:42.533Z,48.94
2023-01-20T08:17:45.380Z,48.89
2023-01-20T08:18:48.284Z,48.88
2023-01-20T08:19:50.566Z,48.85
2023-01-20T08:20:54.109Z,48.80
2023-01-20T08:21:56.871Z,48.81
2023-01-20T08:22:59.282Z,48.77
2023-01-20T08:24:05.060Z,48.76
2023-01-20T08:25:08.247Z,48.75
2023-01-20T08:26:11.432Z,48.69
2023-01-20T08:27:14.954Z,48.67
2023-01-20T08:28:20.294Z,48.67
2023-01-20T08:29:22.651Z,48.65
2023-01-20T08:30:25.176Z,48.61
2023-01-20T08:31:27.662Z,48.61
2023-01-20T08:32:31.328Z,48.59
2023-01-20T08:33:33.797Z,48.55
2023-01-20T08:34:36.743Z,48.54
2023-01-20T08:35:39.392Z,48.51
2023-01-20T08:36:42.389Z,48.50
2023-01-20T08:37:45.355Z,48.50
2023-01-20T08:38:51.608Z,48.48
2023-01-20T08:39:56.270Z,48.45
2023-01-20T08:40:59.168Z,48.43
2023-01-20T08:42:01.590Z,48.37
2023-01-20T08:43:03.820Z,48.37
2023-01-20T08:44:07.561Z,48.46
2023-01-20T08:45:10.298Z,48.51
2023-01-20T08:46:17.652Z,48.53
2023-01-20T08:47:20.344Z,48.44
2023-01-20T08:48:23.307Z,48.38
2023-01-20T08:49:25.894Z,48.33
2023-01-20T08:50:28.895Z,48.26
2023-01-20T08:51:31.585Z,48.26
2023-01-20T08:52:34.256Z,48.19
2023-01-20T08:53:37.080Z,48.09
2023-01-20T08:54:40.670Z,47.87
2023-01-20T08:55:45.286Z,47.58
2023-01-20T08:58:01.988Z,47.41
2023-01-20T08:59:05.452Z,47.40
2023-01-20T09:00:10.491Z,47.42
2023-01-20T09:01:16.429Z,47.35
2023-01-20T09:02:18.991Z,47.30
2023-01-20T09:03:22.487Z,47.29
2023-01-20T09:04:26.717Z,47.29
2023-01-20T09:05:29.593Z,47.13
2023-01-20T09:06:37.867Z,46.94
2023-01-20T09:07:40.921Z,46.96
2023-01-20T09:08:43.959Z,46.95
2023-01-20T09:09:46.834Z,46.62
2023-01-20T09:10:49.398Z,46.81
2023-01-20T09:11:51.757Z,46.87
2023-01-20T09:12:53.975Z,46.90
2023-01-20T09:13:57.030Z,46.85
2023-01-20T09:14:59.396Z,46.86
2023-01-20T09:16:03.523Z,46.79
2023-01-20T09:17:05.961Z,46.86
2023-01-20T09:18:08.485Z,46.82
2023-01-20T09:19:11.006Z,46.86
2023-01-20T09:20:14.502Z,46.85
2023-01-20T09:21:18.752Z,46.86
2023-01-20T09:22:22.365Z,46.70
2023-01-20T09:23:26.744Z,46.69
2023-01-20T09:24:29.109Z,46.66
2023-01-20T09:25:31.304Z,46.61
2023-01-20T09:27:54.988Z,46.56
2023-01-20T09:28:57.329Z,46.58
2023-01-20T09:30:00.839Z,46.63
2023-01-20T09:31:06.236Z,46.61
2023-01-20T09:32:10.048Z,46.60
2023-01-20T09:33:13.283Z,46.58
2023-01-20T09:34:18.096Z,46.55
2023-01-20T09:35:20.629Z,46.50
2023-01-20T09:36:23.329Z,46.49
2023-01-20T09:37:45.451Z,46.51
2023-01-20T09:39:07.191Z,46.52
2023-01-20T09:47:14.535Z,46.79
2023-01-20T09:48:59.179Z,47.04
2023-01-20T12:21:08.968Z,56.25
2023-01-20T12:22:18.936Z,56.24
2023-01-20T12:23:34.612Z,56.19
2023-01-20T12:25:02.633Z,56.45
2023-01-20T12:26:05.384Z,56.65
2023-01-20T12:27:11.798Z,56.46
2023-01-20T12:28:45.422Z,56.56
2023-01-20T12:29:48.110Z,56.21
2023-01-20T12:30:59.446Z,55.39
2023-01-20T12:32:15.849Z,55.00
2023-01-20T12:34:43.375Z,53.77
2023-01-20T12:37:12.686Z,51.27
2023-01-20T12:38:17.819Z,51.84
2023-01-20T12:40:51.454Z,51.32
2023-01-20T12:43:35.692Z,51.03
2023-01-20T12:44:44.877Z,51.02
2023-01-20T12:46:20.228Z,50.86
2023-01-20T12:47:38.935Z,50.50
2023-01-20T12:48:51.035Z,50.29
2023-01-20T12:50:00.445Z,49.78
2023-01-20T12:51:12.316Z,49.70
2023-01-20T12:54:24.088Z,49.27
2023-01-20T12:56:03.788Z,49.06
2023-01-20T12:57:20.659Z,48.80
2023-01-20T12:58:42.613Z,48.32
2023-01-20T13:01:32.427Z,48.26
2023-01-20T13:02:50.444Z,48.18
2023-01-20T13:04:22.681Z,48.02
2023-01-20T13:05:56.761Z,47.72
2023-01-20T13:07:05.930Z,47.57
2023-01-20T13:08:23.672Z,47.04
2023-01-20T13:11:32.696Z,46.83
2023-01-20T13:14:18.217Z,46.11
2023-01-20T13:15:28.794Z,46.04
2023-01-20T13:16:38.123Z,46.05
2023-01-20T13:18:08.560Z,45.86
2023-01-20T13:19:18.676Z,45.83
2023-01-20T13:20:23.331Z,45.79
2023-01-20T13:21:27.939Z,45.82
2023-01-20T13:22:30.895Z,45.73
2023-01-20T13:23:34.997Z,45.52
2023-01-20T13:24:37.414Z,45.28
2023-01-20T13:25:40.430Z,45.33
2023-01-20T13:26:43.946Z,45.15
2023-01-20T13:27:46.303Z,45.09
2023-01-20T13:28:52.773Z,45.01
2023-01-20T13:29:56.786Z,44.87
2023-01-20T13:31:01.443Z,44.66
2023-01-20T13:32:04.750Z,44.71
2023-01-20T13:34:33.530Z,44.91
2023-01-20T13:37:10.619Z,44.95
2023-01-20T13:38:27.993Z,44.87
2023-01-20T13:39:54.077Z,44.67
2023-01-20T13:41:02.148Z,44.64
2023-01-20T13:42:24.817Z,44.74
2023-01-20T13:43:37.317Z,44.20
2023-01-20T13:44:42.346Z,44.17
2023-01-20T13:45:45.396Z,44.31
2023-01-20T13:46:49.704Z,44.12
2023-01-20T13:49:21.675Z,44.36
2023-01-20T13:50:37.027Z,44.29
2023-01-20T13:51:45.350Z,44.38
2023-01-20T13:52:56.673Z,44.19
2023-01-20T13:54:27.900Z,44.24
2023-01-20T13:55:44.599Z,44.35
2023-01-20T13:56:48.352Z,44.15
2023-01-20T13:57:50.837Z,43.94
2023-01-20T13:59:00.389Z,44.09
2023-01-20T14:00:07.193Z,44.25
2023-01-20T14:01:15.933Z,44.34
2023-01-20T14:02:19.273Z,44.41
2023-01-20T14:03:31.724Z,44.43
2023-01-20T14:04:35.271Z,44.43
2023-01-20T14:05:39.202Z,44.42
2023-01-20T14:06:46.804Z,44.45
2023-01-20T14:07:49.707Z,44.50
2023-01-20T14:08:53.441Z,44.21
2023-01-20T14:09:57.561Z,44.08
2023-01-20T14:11:15.807Z,44.09
2023-01-20T14:12:18.976Z,44.09
2023-01-20T14:13:24.133Z,43.91
2023-01-20T14:14:26.947Z,43.84
2023-01-20T14:15:33.446Z,43.83
2023-01-20T14:16:39.254Z,43.86
2023-01-20T14:17:41.791Z,43.94
2023-01-20T14:18:44.901Z,43.94
2023-01-20T14:19:48.482Z,43.92
2023-01-20T14:21:03.353Z,43.93
2023-01-20T14:22:26.189Z,43.72
2023-01-20T14:23:37.535Z,43.76
2023-01-20T14:24:44.080Z,43.93
2023-01-20T14:26:02.801Z,44.08
2023-01-20T14:28:46.444Z,44.20
2023-01-20T14:29:52.678Z,44.23
2023-01-20T14:32:29.526Z,44.41
2023-01-20T14:33:32.224Z,44.36
2023-01-20T14:34:35.688Z,44.36
2023-01-20T14:35:38.837Z,44.35
2023-01-20T14:36:41.269Z,44.33
2023-01-20T14:37:43.696Z,44.38
2023-01-20T14:38:57.802Z,44.36
2023-01-20T14:41:25.997Z,44.14
2023-01-20T14:42:29.145Z,44.06
2023-01-20T14:43:32.391Z,44.08
2023-01-20T14:44:34.965Z,44.13
2023-01-20T14:45:37.322Z,44.16
2023-01-20T14:46:40.159Z,44.05
2023-01-20T14:47:42.872Z,44.07
2023-01-20T14:48:45.708Z,44.14
2023-01-20T14:49:49.449Z,44.37
2023-01-20T14:50:54.430Z,44.33
2023-01-20T14:51:56.820Z,44.34
2023-01-20T14:52:59.980Z,44.17
2023-01-20T14:54:35.826Z,44.15
2023-01-20T14:55:43.981Z,44.12
2023-01-20T14:56:48.526Z,44.04
2023-01-20T14:57:51.487Z,44.00
2023-01-20T14:58:54.289Z,43.79
2023-01-20T15:00:16.354Z,43.80
2023-01-20T15:01:25.209Z,43.73
2023-01-20T15:02:34.283Z,43.41
2023-01-20T15:03:38.755Z,43.39
2023-01-20T15:04:42.208Z,43.40
2023-01-20T15:06:08.334Z,43.39
2023-01-20T15:07:14.844Z,43.46
2023-01-20T15:09:40.523Z,43.73
2023-01-20T15:10:43.245Z,43.76
2023-01-20T15:11:47.678Z,43.65
2023-01-20T15:12:52.478Z,43.59
2023-01-20T15:13:59.655Z,43.65
2023-01-20T15:15:13.558Z,43.63
2023-01-20T15:17:32.660Z,43.60
2023-01-20T15:18:37.051Z,43.40
2023-01-20T15:19:41.472Z,43.43
2023-01-20T15:20:47.671Z,43.40
2023-01-20T15:21:51.495Z,43.41
2023-01-20T15:22:53.960Z,43.50
2023-01-20T15:23:58.759Z,43.47
2023-01-20T15:25:04.927Z,43.28
2023-01-20T15:26:29.281Z,43.28
2023-01-20T15:27:32.721Z,43.30
2023-01-20T15:28:37.469Z,43.31
2023-01-20T15:29:39.805Z,43.34
2023-01-20T15:30:43.180Z,43.25
2023-01-20T15:31:46.024Z,43.31
2023-01-20T15:32:48.722Z,43.45
2023-01-20T15:33:51.524Z,43.78
2023-01-20T15:34:56.750Z,43.92
2023-01-20T15:36:00.691Z,44.30
2023-01-20T15:37:03.547Z,44.19
2023-01-20T15:38:14.086Z,44.43
2023-01-20T15:40:35.049Z,44.38
2023-01-20T15:41:37.488Z,44.46
2023-01-20T15:42:41.645Z,44.47
2023-01-20T15:43:48.498Z,44.54
2023-01-20T15:44:51.402Z,44.58
2023-01-20T15:45:55.845Z,44.57
2023-01-20T15:46:58.207Z,44.28
2023-01-20T15:48:00.572Z,44.31
2023-01-20T15:49:03.389Z,44.30
2023-01-20T15:51:25.864Z,43.96
2023-01-20T15:52:28.464Z,43.70
2023-01-20T15:53:30.835Z,43.84
2023-01-20T15:54:33.924Z,44.05
2023-01-20T15:55:39.367Z,43.85
2023-01-20T15:56:43.454Z,44.12
2023-01-20T15:57:49.058Z,44.24
2023-01-20T15:58:51.535Z,44.23
2023-01-20T15:59:55.000Z,44.24
2023-01-20T16:00:58.241Z,44.49
2023-01-20T16:02:00.731Z,44.49
2023-01-20T16:03:03.285Z,44.58
2023-01-20T16:04:05.641Z,44.55
2023-01-20T16:05:08.277Z,43.59
2023-01-20T16:06:18.940Z,43.57
2023-01-20T16:07:23.487Z,43.65
2023-01-20T16:08:35.079Z,43.86
2023-01-20T16:09:38.614Z,43.76
2023-01-20T16:10:41.387Z,43.33
2023-01-20T16:11:43.698Z,43.83
2023-01-20T16:12:46.725Z,43.85
2023-01-20T16:13:49.463Z,44.02
2023-01-20T16:14:52.318Z,44.19
2023-01-20T16:15:54.673Z,44.24
2023-01-20T16:16:58.328Z,44.29
2023-01-20T16:18:00.772Z,44.41
2023-01-20T16:19:04.924Z,44.67
2023-01-20T16:21:32.418Z,44.64
2023-01-20T16:22:34.652Z,44.76
2023-01-20T16:23:39.480Z,44.83
2023-01-20T16:24:43.291Z,44.86
2023-01-20T16:25:46.203Z,44.93
2023-01-20T16:26:48.820Z,45.03
2023-01-20T16:27:51.318Z,45.10
2023-01-20T16:28:55.174Z,45.11
2023-01-20T16:29:58.241Z,45.15
2023-01-20T16:31:01.910Z,45.20
2023-01-20T16:32:05.286Z,45.34
2023-01-20T16:34:29.908Z,45.32
2023-01-20T16:35:32.480Z,45.45
2023-01-20T16:36:34.812Z,45.49
2023-01-20T16:37:37.204Z,45.53
2023-01-20T16:38:41.293Z,45.59
2023-01-20T16:39:44.780Z,45.67
2023-01-20T16:40:50.974Z,45.88
2023-01-20T16:41:53.779Z,45.88
2023-01-20T16:42:56.580Z,45.76
2023-01-20T16:43:59.734Z,45.99
2023-01-20T16:45:03.262Z,45.99
2023-01-20T16:46:05.728Z,45.71
2023-01-20T16:47:08.124Z,45.72
2023-01-20T16:48:10.818Z,45.73
2023-01-20T16:49:13.866Z,45.70
2023-01-20T16:50:18.630Z,45.69
2023-01-20T16:51:23.741Z,45.71
2023-01-20T16:52:27.095Z,45.72
2023-01-20T16:53:29.501Z,45.78
2023-01-20T16:54:31.699Z,45.77
2023-01-20T16:55:34.986Z,45.76
2023-01-20T16:56:40.033Z,45.78
2023-01-20T16:57:43.637Z,45.78
2023-01-20T16:58:46.957Z,45.87
2023-01-20T16:59:49.426Z,45.84
2023-01-20T17:00:52.172Z,45.88
2023-01-20T17:01:55.481Z,45.95
2023-01-20T17:02:59.658Z,46.00
2023-01-20T17:04:03.283Z,46.00
2023-01-20T17:05:09.274Z,46.08
2023-01-20T17:06:14.446Z,46.15
2023-01-20T17:07:20.570Z,46.14
2023-01-20T17:08:23.117Z,46.20
2023-01-20T17:09:25.999Z,46.34
2023-01-20T17:10:29.463Z,46.50
2023-01-20T17:11:33.878Z,46.65
2023-01-20T17:12:37.247Z,46.90
2023-01-20T17:13:39.597Z,47.19
2023-01-20T17:14:42.058Z,47.37
2023-01-20T17:15:44.357Z,47.65
2023-01-20T17:16:48.163Z,47.83
2023-01-20T17:17:53.704Z,48.15
2023-01-20T17:18:59.047Z,48.32
2023-01-20T17:20:02.069Z,48.44
2023-01-20T17:21:06.065Z,48.72
2023-01-20T17:22:08.641Z,48.62
2023-01-20T17:23:11.734Z,48.56
2023-01-20T17:24:14.715Z,48.64
2023-01-20T17:25:17.977Z,48.66
2023-01-20T17:26:21.793Z,48.86
2023-01-20T17:27:24.463Z,48.96
2023-01-20T17:28:26.903Z,49.01
2023-01-20T17:29:29.340Z,49.04
2023-01-20T17:30:32.217Z,49.15
2023-01-20T17:31:37.384Z,49.20
2023-01-20T17:32:39.917Z,49.26
2023-01-20T17:33:45.855Z,49.18
2023-01-20T17:34:49.440Z,49.23
2023-01-20T17:35:59.483Z,49.32
2023-01-20T17:37:02.109Z,49.23
2023-01-20T17:38:06.003Z,49.15
2023-01-20T17:39:09.843Z,49.15
2023-01-20T17:40:13.604Z,49.20
2023-01-20T17:41:16.718Z,49.16
2023-01-20T17:42:19.448Z,49.14
2023-01-20T17:43:21.995Z,48.93
2023-01-20T17:44:25.528Z,48.93
2023-01-20T17:45:30.062Z,49.07
2023-01-20T17:46:32.939Z,49.00
2023-01-20T21:19:29.526Z,57.31
2023-01-20T21:20:32.744Z,57.40
2023-01-20T21:21:35.731Z,57.40
2023-01-20T21:22:38.418Z,57.40
2023-01-20T21:23:42.437Z,57.31
2023-01-20T21:24:44.848Z,56.96
2023-01-20T21:25:47.149Z,56.67
2023-01-20T21:26:50.199Z,56.45
2023-01-20T21:27:54.933Z,56.00
2023-01-20T21:29:00.542Z,55.64
2023-01-20T21:30:04.932Z,55.13
2023-01-20T21:31:09.529Z,54.75
2023-01-20T21:32:12.478Z,54.49
2023-01-20T21:33:17.305Z,54.04
2023-01-20T21:34:20.994Z,53.72
2023-01-20T21:35:23.703Z,53.46
2023-01-20T21:36:28.288Z,53.15
2023-01-20T21:37:32.201Z,53.00
2023-01-20T21:38:36.764Z,52.64
2023-01-20T21:39:40.531Z,52.38
2023-01-20T21:40:45.679Z,51.97